Time;durP1;ratioP1;P1;durP2;ratioP2;P2;SDS_P1;SDS_P2;PMS_P1;PMS_P2;Temp;Humidity;BMP_temperature;BMP_pressure;BME280_temperature;BME280_humidity;BME280_pressure;Samples;Min_cycle;Max_cycle;Signal;HPM_P1;HPM_P2
2023/01/27 00:02:21;;;;;;;11.40;5.93;;;0.90;89.20;;;;;;5087186;27;20035;-75
2023/01/27 00:04:47;;;;;;;15.27;6.82;;;0.90;89.20;;;;;;5086251;27;20063;-75
2023/01/27 00:07:12;;;;;;;13.75;6.90;;;0.90;89.20;;;;;;5064226;28;20032;-76
2023/01/27 00:09:40;;;;;;;12.55;6.65;;;0.90;89.20;;;;;;5084020;27;20292;-75
2023/01/27 00:14:50;;;;;;;14.63;6.93;;;0.90;89.30;;;;;;5068561;27;20057;-75
2023/01/27 00:17:15;;;;;;;14.35;6.55;;;0.90;89.30;;;;;;5068812;28;20031;-72
2023/01/27 00:19:43;;;;;;;12.25;6.05;;;0.90;89.30;;;;;;5069146;27;20055;-75
2023/01/27 00:24:53;;;;;;;15.23;6.85;;;0.90;89.30;;;;;;5086198;27;20779;-74
2023/01/27 00:27:18;;;;;;;14.70;6.95;;;0.90;89.30;;;;;;5081914;28;20102;-75
2023/01/27 00:29:44;;;;;;;10.55;6.15;;;0.90;89.40;;;;;;5067575;27;20035;-75
2023/01/27 00:34:54;;;;;;;14.02;6.75;;;0.90;89.40;;;;;;5083240;27;20115;-76
2023/01/27 00:37:19;;;;;;;12.52;6.35;;;0.90;89.50;;;;;;5049817;28;20032;-75
2023/01/27 00:39:45;;;;;;;11.27;6.30;;;0.90;89.40;;;;;;5058297;28;20410;-75
2023/01/27 00:42:10;;;;;;;13.75;6.95;;;0.80;89.30;;;;;;5072701;28;20061;-75
2023/01/27 00:44:36;;;;;;;14.05;6.20;;;0.90;89.40;;;;;;5076177;28;20427;-75
2023/01/27 00:47:01;;;;;;;12.52;6.03;;;0.80;89.30;;;;;;5061509;28;20465;-75
2023/01/27 00:49:27;;;;;;;11.52;6.20;;;0.90;90.00;;;;;;5074598;28;20057;-76
2023/01/27 00:51:53;;;;;;;10.18;6.00;;;0.90;89.40;;;;;;5077767;28;20189;-75
2023/01/27 00:54:19;;;;;;;11.38;6.07;;;0.90;89.40;;;;;;5061825;28;20085;-75
2023/01/27 00:56:45;;;;;;;11.70;6.10;;;0.90;89.50;;;;;;5041550;28;20555;-76
2023/01/27 00:59:10;;;;;;;9.75;5.03;;;0.90;89.40;;;;;;5061350;28;20036;-74
2023/01/27 01:01:36;;;;;;;9.38;5.35;;;0.90;89.40;;;;;;5074291;28;20028;-76
2023/01/27 01:04:02;;;;;;;10.60;5.93;;;0.90;89.40;;;;;;5074803;28;20093;-76
2023/01/27 01:06:27;;;;;;;9.57;5.30;;;0.90;90.10;;;;;;5061361;28;20040;-77
2023/01/27 01:08:55;;;;;;;12.27;6.00;;;0.90;89.50;;;;;;5061882;28;20055;-76
2023/01/27 01:11:21;;;;;;;12.38;6.18;;;0.90;89.60;;;;;;5062545;28;20046;-76
2023/01/27 01:13:46;;;;;;;11.05;5.68;;;0.90;89.60;;;;;;5058566;28;20036;-76
2023/01/27 01:16:21;;;;;;;8.10;4.75;;;0.90;89.60;;;;;;5067510;27;20061;-74
2023/01/27 01:18:47;;;;;;;10.80;5.53;;;0.90;89.60;;;;;;5091390;27;20464;-75
2023/01/27 01:21:13;;;;;;;12.32;6.13;;;0.90;89.60;;;;;;5061232;28;20036;-75
2023/01/27 01:23:42;;;;;;;8.82;5.45;;;0.90;89.60;;;;;;5057146;28;20042;-75
2023/01/27 01:26:09;;;;;;;10.80;5.80;;;0.90;89.60;;;;;;5076333;28;20047;-76
2023/01/27 01:28:34;;;;;;;12.63;6.40;;;0.90;89.60;;;;;;5058223;28;20044;-75
2023/01/27 01:31:04;;;;;;;11.23;6.10;;;0.90;89.70;;;;;;5048253;28;20035;-75
2023/01/27 01:33:30;;;;;;;11.10;5.53;;;0.90;89.70;;;;;;5055406;28;20036;-76
2023/01/27 01:35:55;;;;;;;10.65;5.40;;;0.90;89.70;;;;;;5060258;28;20038;-76
2023/01/27 01:38:21;;;;;;;10.68;5.45;;;0.90;89.70;;;;;;5073729;28;20036;-76
2023/01/27 01:40:46;;;;;;;14.82;6.35;;;1.00;89.90;;;;;;5061820;28;20032;-76
2023/01/27 01:43:14;;;;;;;13.18;6.30;;;0.90;89.70;;;;;;5076021;27;20031;-75
2023/01/27 01:45:44;;;;;;;11.35;5.95;;;0.90;89.70;;;;;;5079869;28;20055;-75
2023/01/27 01:48:12;;;;;;;12.13;6.10;;;0.90;89.70;;;;;;5062356;28;20071;-75
2023/01/27 01:50:38;;;;;;;11.73;6.72;;;1.00;89.90;;;;;;5077365;28;20426;-75
2023/01/27 01:53:03;;;;;;;11.13;5.80;;;0.90;89.90;;;;;;5060109;28;20044;-75
2023/01/27 01:55:29;;;;;;;12.27;5.88;;;0.90;89.90;;;;;;5057948;28;20830;-73
2023/01/27 01:57:55;;;;;;;13.57;6.63;;;1.00;89.90;;;;;;5076730;28;20107;-75
2023/01/27 02:00:20;;;;;;;12.80;6.70;;;1.00;89.90;;;;;;5093622;28;20031;-74
2023/01/27 02:02:47;;;;;;;12.82;7.13;;;0.90;89.90;;;;;;5059474;28;20061;-74
2023/01/27 02:05:15;;;;;;;13.10;7.13;;;1.00;89.90;;;;;;5066495;28;20032;-76
2023/01/27 02:08:17;;;;;;;14.75;7.28;;;0.90;89.80;;;;;;5079340;28;20422;-74
2023/01/27 02:10:42;;;;;;;13.77;6.93;;;0.90;89.90;;;;;;5041399;28;20123;-74
2023/01/27 02:13:08;;;;;;;14.40;7.30;;;0.90;89.80;;;;;;5061271;28;20422;-75
2023/01/27 02:15:34;;;;;;;9.63;5.85;;;0.90;89.80;;;;;;5061541;28;21216;-75
2023/01/27 02:17:59;;;;;;;13.57;7.25;;;0.90;89.90;;;;;;5043845;28;20032;-75
2023/01/27 02:20:31;;;;;;;12.05;6.80;;;1.00;89.90;;;;;;5055466;28;20081;-76
2023/01/27 02:23:11;;;;;;;15.05;6.60;;;1.00;89.90;;;;;;5079997;28;20082;-76
2023/01/27 02:25:46;;;;;;;11.38;6.22;;;0.90;89.90;;;;;;5076967;28;20073;-75
2023/01/27 02:28:12;;;;;;;12.98;7.03;;;1.00;90.00;;;;;;5060202;28;20035;-75
2023/01/27 02:30:37;;;;;;;14.23;6.78;;;0.90;89.90;;;;;;5060402;28;20050;-75
2023/01/27 02:33:11;;;;;;;13.65;6.55;;;0.90;89.90;;;;;;5096652;28;20035;-74
2023/01/27 02:35:57;;;;;;;15.77;7.03;;;0.90;89.80;;;;;;5061061;28;20035;-74
2023/01/27 02:38:23;;;;;;;15.65;7.00;;;0.90;89.90;;;;;;5074227;28;20459;-74
2023/01/27 02:40:50;;;;;;;18.25;7.53;;;0.90;89.90;;;;;;5075582;28;20068;-75
2023/01/27 02:43:16;;;;;;;15.10;7.65;;;1.00;89.90;;;;;;5049940;28;20058;-76
2023/01/27 02:45:41;;;;;;;14.13;7.13;;;0.90;89.90;;;;;;5081196;27;20126;-76
2023/01/27 02:48:07;;;;;;;13.40;6.85;;;0.90;89.90;;;;;;5074977;28;20134;-76
2023/01/27 02:50:33;;;;;;;15.15;7.25;;;0.90;89.90;;;;;;5063778;28;20071;-74
2023/01/27 02:52:58;;;;;;;13.23;6.90;;;0.90;89.90;;;;;;5100562;27;20062;-76
2023/01/27 02:55:24;;;;;;;16.35;7.47;;;0.90;89.90;;;;;;5048955;28;20834;-75
2023/01/27 02:57:50;;;;;;;14.20;5.88;;;0.90;90.00;;;;;;5081045;28;20028;-75
2023/01/27 03:00:15;;;;;;;13.68;7.28;;;0.90;90.00;;;;;;5044019;28;20038;-75
2023/01/27 03:02:41;;;;;;;13.75;6.38;;;0.90;90.00;;;;;;5060270;28;20109;-75
2023/01/27 03:05:07;;;;;;;12.63;6.65;;;0.90;90.00;;;;;;5098404;27;20028;-75
2023/01/27 03:07:32;;;;;;;11.85;6.30;;;0.90;90.00;;;;;;5078184;28;20042;-76
2023/01/27 03:09:58;;;;;;;12.88;6.75;;;0.90;90.00;;;;;;5100715;27;20031;-76
2023/01/27 03:12:23;;;;;;;16.17;6.63;;;0.90;90.00;;;;;;5081550;27;20036;-75
2023/01/27 03:20:18;;;;;;;12.98;6.97;;;0.90;90.00;;;;;;5090056;27;20087;-74
2023/01/27 03:22:43;;;;;;;13.30;6.78;;;0.90;90.00;;;;;;5081942;27;20039;-76
2023/01/27 03:25:09;;;;;;;14.77;6.82;;;0.90;90.00;;;;;;5080093;28;20214;-74
2023/01/27 03:27:34;;;;;;;11.55;5.82;;;0.90;90.00;;;;;;5079100;28;20501;-74
2023/01/27 03:30:00;;;;;;;13.50;6.18;;;0.90;90.00;;;;;;5082366;27;20032;-76
2023/01/27 03:32:27;;;;;;;12.05;6.75;;;1.00;90.00;;;;;;5078150;28;20032;-76
2023/01/27 03:34:52;;;;;;;14.25;6.53;;;0.90;90.00;;;;;;5081294;28;20035;-75
2023/01/27 03:48:19;;;;;;;12.93;6.25;;;0.90;90.00;;;;;;5066576;27;20580;-76
2023/01/27 03:50:52;;;;;;;12.77;6.88;;;1.00;90.00;;;;;;5049444;27;20031;-75
2023/01/27 03:53:18;;;;;;;12.85;6.32;;;0.90;90.00;;;;;;5052444;28;20031;-74
2023/01/27 03:55:45;;;;;;;10.23;6.18;;;0.90;90.00;;;;;;5062276;28;20032;-74
2023/01/27 03:58:25;;;;;;;11.70;5.65;;;1.00;90.00;;;;;;5084818;27;20713;-75
2023/01/27 04:00:54;;;;;;;10.95;6.15;;;1.00;90.10;;;;;;5066117;27;20103;-75
2023/01/27 04:08:51;;;;;;;10.68;6.07;;;1.00;90.10;;;;;;5061203;28;20078;-75
2023/01/27 04:14:02;;;;;;;11.23;5.75;;;1.00;90.10;;;;;;5077418;28;20040;-75
2023/01/27 04:16:29;;;;;;;10.43;5.53;;;1.00;90.00;;;;;;5077606;28;20046;-75
2023/01/27 04:18:55;;;;;;;13.32;6.55;;;1.00;90.00;;;;;;5043333;28;20399;-74
2023/01/27 04:21:20;;;;;;;11.23;5.80;;;1.00;90.10;;;;;;5095025;27;20471;-75
2023/01/27 04:23:46;;;;;;;9.45;5.63;;;1.00;90.00;;;;;;5081311;27;20486;-75
2023/01/27 04:26:11;;;;;;;10.77;5.70;;;1.00;90.10;;;;;;5076250;28;20059;-76
2023/01/27 04:28:37;;;;;;;12.43;5.72;;;0.90;90.00;;;;;;5084107;28;20111;-75
2023/01/27 04:31:02;;;;;;;12.30;7.88;;;0.90;90.00;;;;;;5094790;27;20142;-75
2023/01/27 04:33:28;;;;;;;24.98;17.38;;;1.00;90.10;;;;;;5075429;27;20516;-75
2023/01/27 04:35:54;;;;;;;21.15;12.23;;;0.90;90.00;;;;;;5061678;28;20071;-74
2023/01/27 04:38:20;;;;;;;20.23;11.20;;;0.90;90.00;;;;;;5067261;28;20032;-75
2023/01/27 04:40:46;;;;;;;11.20;5.97;;;1.00;90.00;;;;;;5079930;28;20063;-75
2023/01/27 04:43:12;;;;;;;12.93;7.05;;;1.00;90.00;;;;;;5060413;27;20122;-77
2023/01/27 04:45:37;;;;;;;17.40;7.38;;;1.00;90.00;;;;;;5079061;28;20081;-76
2023/01/27 04:48:03;;;;;;;13.88;6.85;;;0.90;90.00;;;;;;5067581;28;20123;-75
2023/01/27 04:50:28;;;;;;;14.25;6.65;;;0.90;90.00;;;;;;5070682;28;20392;-76
2023/01/27 04:52:54;;;;;;;11.55;6.60;;;0.90;90.00;;;;;;5097518;27;20047;-78
2023/01/27 04:55:19;;;;;;;13.85;7.07;;;0.90;90.00;;;;;;5054700;28;20059;-76
2023/01/27 04:57:45;;;;;;;10.10;5.65;;;0.90;90.00;;;;;;5058181;28;20111;-76
2023/01/27 05:00:11;;;;;;;11.77;6.32;;;0.90;90.00;;;;;;5079997;27;20035;-76
2023/01/27 05:02:37;;;;;;;12.15;6.20;;;0.90;90.00;;;;;;5037285;28;20089;-77
2023/01/27 05:05:03;;;;;;;11.05;5.95;;;0.90;90.00;;;;;;5079753;28;20782;-76
2023/01/27 05:07:32;;;;;;;9.73;5.82;;;0.90;90.00;;;;;;5076481;28;20082;-75
2023/01/27 05:09:57;;;;;;;11.85;6.30;;;1.00;90.10;;;;;;5079277;28;20655;-77
2023/01/27 05:12:23;;;;;;;11.38;5.45;;;1.00;90.10;;;;;;5066118;27;20043;-77
2023/01/27 05:14:48;;;;;;;10.95;6.00;;;0.90;90.00;;;;;;5060976;28;20150;-77
2023/01/27 05:17:14;;;;;;;12.73;6.10;;;0.90;90.00;;;;;;5080403;27;20034;-77
2023/01/27 05:19:39;;;;;;;12.90;6.07;;;0.90;90.00;;;;;;5076825;28;20028;-77
2023/01/27 05:22:05;;;;;;;13.70;6.18;;;1.00;90.10;;;;;;5059581;28;20055;-76
2023/01/27 05:24:30;;;;;;;11.43;5.60;;;1.00;90.10;;;;;;5066037;28;20042;-76
2023/01/27 05:26:56;;;;;;;10.65;6.18;;;1.00;90.10;;;;;;5045088;28;20038;-76
2023/01/27 05:29:22;;;;;;;10.35;5.28;;;0.90;90.00;;;;;;5051636;28;20417;-76
2023/01/27 05:31:47;;;;;;;12.65;5.90;;;0.90;90.10;;;;;;5060653;27;20119;-76
2023/01/27 05:34:13;;;;;;;11.23;6.72;;;0.90;90.10;;;;;;5085372;28;20031;-75
2023/01/27 05:36:39;;;;;;;10.73;5.68;;;0.90;90.10;;;;;;5078047;28;20041;-75
2023/01/27 05:39:04;;;;;;;10.25;5.55;;;0.90;90.10;;;;;;5064255;27;20070;-75
2023/01/27 05:41:30;;;;;;;9.98;5.43;;;0.90;90.10;;;;;;5079987;28;20031;-76
2023/01/27 05:43:56;;;;;;;10.13;4.70;;;0.90;90.00;;;;;;5063038;28;20039;-76
2023/01/27 05:46:23;;;;;;;11.75;5.60;;;0.90;90.10;;;;;;5075418;28;20742;-77
2023/01/27 05:48:53;;;;;;;10.63;5.18;;;0.90;90.10;;;;;;5064235;28;20612;-76
2023/01/27 05:51:20;;;;;;;8.60;5.22;;;0.90;90.10;;;;;;5075771;28;20032;-76
2023/01/27 05:53:45;;;;;;;10.50;5.18;;;0.90;90.10;;;;;;5052515;28;20028;-74
2023/01/27 05:56:13;;;;;;;10.27;5.35;;;0.90;90.00;;;;;;5059314;28;20077;-76
2023/01/27 05:58:39;;;;;;;10.63;5.25;;;1.00;90.10;;;;;;5075060;28;20559;-76
2023/01/27 06:01:11;;;;;;;11.43;5.57;;;0.90;90.00;;;;;;5063387;28;20044;-74
2023/01/27 06:03:37;;;;;;;14.00;5.90;;;0.90;90.10;;;;;;5078378;28;20035;-76
2023/01/27 06:06:02;;;;;;;8.63;4.72;;;0.90;90.00;;;;;;5077087;28;20036;-77
2023/01/27 06:08:28;;;;;;;10.38;5.80;;;0.90;90.10;;;;;;5077410;28;20043;-77
2023/01/27 06:10:54;;;;;;;9.07;4.90;;;0.90;90.00;;;;;;5079793;28;20695;-76
2023/01/27 06:13:22;;;;;;;9.75;5.00;;;0.90;90.00;;;;;;5058798;28;20752;-75
2023/01/27 06:15:48;;;;;;;9.32;4.95;;;0.90;90.10;;;;;;5081140;28;20432;-75
2023/01/27 06:18:14;;;;;;;10.70;5.35;;;0.90;90.10;;;;;;5050601;28;20040;-74
2023/01/27 06:20:40;;;;;;;10.48;5.00;;;0.90;90.10;;;;;;5070788;27;20124;-76
2023/01/27 06:23:09;;;;;;;9.75;4.85;;;0.90;90.10;;;;;;5095374;27;20797;-76
2023/01/27 06:25:42;;;;;;;9.38;5.10;;;0.90;90.10;;;;;;5081814;28;20410;-76
2023/01/27 06:28:08;;;;;;;8.85;4.57;;;0.90;90.10;;;;;;5085076;28;20118;-76
2023/01/27 06:30:34;;;;;;;9.65;5.35;;;0.90;90.10;;;;;;5065124;28;20188;-76
2023/01/27 06:33:00;;;;;;;11.60;5.75;;;0.90;90.10;;;;;;5082103;28;20039;-76
2023/01/27 06:35:25;;;;;;;9.70;5.10;;;0.90;90.10;;;;;;5082666;27;20046;-77
2023/01/27 06:37:51;;;;;;;11.18;5.43;;;0.90;90.10;;;;;;5083865;28;20518;-75
2023/01/27 06:40:17;;;;;;;8.10;4.85;;;0.90;90.10;;;;;;5083219;28;20035;-75
2023/01/27 06:42:43;;;;;;;10.40;5.05;;;0.90;90.10;;;;;;5065017;28;20035;-76
2023/01/27 06:45:10;;;;;;;8.98;5.50;;;0.90;90.10;;;;;;5049768;27;20084;-75
2023/01/27 06:47:36;;;;;;;9.50;5.38;;;0.90;90.10;;;;;;5065582;28;20131;-75
2023/01/27 06:50:01;;;;;;;8.65;5.18;;;0.90;90.10;;;;;;5080762;27;20115;-77
2023/01/27 06:52:27;;;;;;;7.63;4.75;;;0.90;90.10;;;;;;5063578;28;20035;-75
2023/01/27 06:54:52;;;;;;;6.72;3.97;;;0.90;90.10;;;;;;5082159;27;20066;-74
2023/01/27 06:57:18;;;;;;;7.05;4.32;;;0.90;90.10;;;;;;5077401;27;20084;-75
2023/01/27 06:59:43;;;;;;;10.70;5.50;;;0.90;90.10;;;;;;5054360;28;20032;-76
2023/01/27 07:02:11;;;;;;;9.30;5.57;;;0.90;90.10;;;;;;5051486;28;20027;-73
2023/01/27 07:04:37;;;;;;;12.10;6.13;;;0.90;90.10;;;;;;5079206;28;20122;-74
2023/01/27 07:07:02;;;;;;;11.82;6.43;;;0.90;90.10;;;;;;5076633;28;20041;-76
2023/01/27 07:09:28;;;;;;;11.05;5.97;;;0.90;90.10;;;;;;5072227;27;20495;-74
2023/01/27 07:11:53;;;;;;;9.77;5.63;;;0.90;90.10;;;;;;5080776;28;20035;-76
2023/01/27 07:14:19;;;;;;;10.77;5.72;;;0.90;90.10;;;;;;5078891;28;20062;-75
2023/01/27 07:16:44;;;;;;;11.02;6.13;;;0.90;90.10;;;;;;5063972;28;20696;-76
2023/01/27 07:19:11;;;;;;;10.63;6.30;;;1.00;90.10;;;;;;5063486;28;20115;-73
2023/01/27 07:21:37;;;;;;;12.75;6.05;;;0.90;90.10;;;;;;5074629;28;20154;-76
2023/01/27 07:24:03;;;;;;;11.77;5.80;;;0.90;90.10;;;;;;5064792;28;20118;-76
2023/01/27 07:26:28;;;;;;;9.27;5.53;;;1.00;90.10;;;;;;5076508;28;20088;-76
2023/01/27 07:28:54;;;;;;;10.02;5.25;;;0.90;90.10;;;;;;5062813;28;20133;-76
2023/01/27 07:31:20;;;;;;;11.70;5.95;;;1.00;90.10;;;;;;5056535;28;20051;-75
2023/01/27 07:33:46;;;;;;;8.38;4.22;;;1.00;90.10;;;;;;5063297;28;20343;-76
2023/01/27 07:36:11;;;;;;;13.70;6.18;;;1.00;90.10;;;;;;5065338;27;20034;-76
2023/01/27 07:38:37;;;;;;;19.50;12.20;;;1.00;90.20;;;;;;5072717;28;20532;-76
2023/01/27 07:41:04;;;;;;;14.23;8.07;;;1.00;90.20;;;;;;5066462;28;20035;-73
2023/01/27 07:43:30;;;;;;;10.57;5.93;;;1.00;90.20;;;;;;5076984;28;20046;-75
2023/01/27 07:45:56;;;;;;;16.00;8.20;;;1.00;90.20;;;;;;5081663;28;20039;-76
2023/01/27 07:48:22;;;;;;;25.55;11.52;;;1.00;90.20;;;;;;5079775;28;20042;-76
2023/01/27 07:50:47;;;;;;;22.27;10.48;;;1.10;90.20;;;;;;5067851;28;20058;-75
2023/01/27 07:53:13;;;;;;;18.05;9.90;;;1.10;90.20;;;;;;5079713;27;20050;-76
2023/01/27 07:55:38;;;;;;;16.38;9.43;;;1.10;90.20;;;;;;5063951;28;20039;-75
2023/01/27 07:58:04;;;;;;;16.15;8.90;;;1.10;90.20;;;;;;5080517;28;20631;-76
2023/01/27 08:00:29;;;;;;;13.40;7.30;;;1.10;90.20;;;;;;5081962;28;20521;-77
2023/01/27 08:02:57;;;;;;;12.38;6.78;;;1.10;90.20;;;;;;5079233;28;20494;-76
2023/01/27 08:05:23;;;;;;;13.85;7.38;;;1.10;90.20;;;;;;5075757;28;20031;-75
2023/01/27 08:07:49;;;;;;;12.13;7.20;;;1.10;90.20;;;;;;5064833;27;20035;-76
2023/01/27 08:10:16;;;;;;;16.90;8.50;;;1.20;90.20;;;;;;5061482;28;20032;-76
2023/01/27 08:12:42;;;;;;;13.77;6.95;;;1.10;90.20;;;;;;5078088;28;20028;-76
2023/01/27 08:15:08;;;;;;;18.67;8.38;;;1.20;90.20;;;;;;5063192;28;20043;-76
2023/01/27 08:17:33;;;;;;;27.50;12.60;;;1.20;90.20;;;;;;5061805;28;21111;-76
2023/01/27 08:19:59;;;;;;;15.63;8.73;;;1.20;90.20;;;;;;5078467;28;20038;-75
2023/01/27 08:22:25;;;;;;;18.23;8.68;;;1.20;90.20;;;;;;5095410;28;20097;-77
2023/01/27 08:24:51;;;;;;;12.57;7.53;;;1.20;90.20;;;;;;5059786;28;20036;-76
2023/01/27 08:27:16;;;;;;;15.75;8.02;;;1.20;90.20;;;;;;5046408;28;20734;-76
2023/01/27 08:29:42;;;;;;;13.23;7.00;;;1.20;90.20;;;;;;5047969;28;20549;-76
2023/01/27 08:32:09;;;;;;;18.70;8.25;;;1.20;90.20;;;;;;5062925;27;20169;-76
2023/01/27 08:34:35;;;;;;;13.55;7.70;;;1.20;90.20;;;;;;5079908;28;20047;-76
2023/01/27 08:37:00;;;;;;;14.52;7.90;;;1.30;90.30;;;;;;5081029;27;20042;-77
2023/01/27 08:39:26;;;;;;;14.10;7.22;;;1.30;90.20;;;;;;5082399;28;20031;-76
2023/01/27 08:41:51;;;;;;;14.38;8.07;;;1.30;90.30;;;;;;5065621;27;20031;-76
2023/01/27 08:44:17;;;;;;;14.73;7.78;;;1.30;90.20;;;;;;5059068;28;20065;-75
2023/01/27 08:46:42;;;;;;;14.82;7.60;;;1.30;90.20;;;;;;5073570;27;20101;-76
2023/01/27 08:49:08;;;;;;;13.77;7.07;;;1.30;90.20;;;;;;5079438;28;20044;-75
2023/01/27 08:51:33;;;;;;;12.95;6.63;;;1.40;90.20;;;;;;5075963;28;20032;-75
2023/01/27 08:53:59;;;;;;;13.15;6.88;;;1.40;90.20;;;;;;5065525;27;20100;-76
2023/01/27 08:56:25;;;;;;;15.80;7.55;;;1.40;90.20;;;;;;5074655;27;20058;-75
2023/01/27 08:58:51;;;;;;;16.00;8.40;;;1.40;90.20;;;;;;5052254;27;20669;-76
2023/01/27 09:01:17;;;;;;;15.77;7.00;;;1.40;90.20;;;;;;5048781;27;20058;-76
2023/01/27 09:03:42;;;;;;;14.35;6.80;;;1.40;90.10;;;;;;5076328;27;20059;-76
2023/01/27 09:06:09;;;;;;;16.38;8.07;;;1.40;90.10;;;;;;5059841;28;20963;-76
2023/01/27 09:08:34;;;;;;;13.63;7.05;;;1.40;90.10;;;;;;5059957;28;20078;-75
2023/01/27 09:11:07;;;;;;;13.63;6.53;;;1.40;90.10;;;;;;5062446;27;20130;-76
2023/01/27 09:13:32;;;;;;;11.80;6.22;;;1.50;90.10;;;;;;5093524;27;20039;-76
2023/01/27 09:15:59;;;;;;;15.65;6.70;;;1.50;90.10;;;;;;5080280;28;20035;-75
2023/01/27 09:18:25;;;;;;;14.60;7.80;;;1.50;90.10;;;;;;5076073;28;20062;-76
2023/01/27 09:20:51;;;;;;;30.02;19.00;;;1.50;90.10;;;;;;5074926;28;20089;-77
2023/01/27 09:23:17;;;;;;;22.88;14.50;;;1.50;90.10;;;;;;5077709;27;20511;-77
2023/01/27 09:25:43;;;;;;;41.17;21.33;;;1.50;90.10;;;;;;5088529;27;20036;-77
2023/01/27 09:28:15;;;;;;;17.45;9.05;;;1.50;90.10;;;;;;5078934;28;20046;-78
2023/01/27 09:30:47;;;;;;;15.05;7.53;;;1.50;90.10;;;;;;5058354;28;20824;-77
2023/01/27 09:33:13;;;;;;;17.33;7.90;;;1.60;90.10;;;;;;5026841;28;20765;-76
2023/01/27 09:35:45;;;;;;;15.18;6.88;;;1.60;90.10;;;;;;5057470;28;20032;-78
2023/01/27 09:38:12;;;;;;;79.50;32.95;;;1.60;90.10;;;;;;5040166;28;20040;-76
2023/01/27 09:40:52;;;;;;;26.40;13.00;;;1.60;90.10;;;;;;5053248;28;20167;-77
2023/01/27 09:43:28;;;;;;;58.85;22.42;;;1.60;90.20;;;;;;5056210;28;20452;-75
2023/01/27 09:46:04;;;;;;;51.30;19.20;;;1.70;90.10;;;;;;5056409;28;20096;-77
2023/01/27 09:48:39;;;;;;;55.10;19.00;;;1.70;90.10;;;;;;5072030;28;20068;-77
2023/01/27 09:51:20;;;;;;;20.80;9.23;;;1.70;90.10;;;;;;5058183;28;20068;-77
2023/01/27 09:54:14;;;;;;;58.65;27.95;;;1.70;90.10;;;;;;5044166;28;20128;-77
2023/01/27 09:56:48;;;;;;;35.42;21.92;;;1.80;90.10;;;;;;5055781;28;20083;-77
2023/01/27 09:59:27;;;;;;;24.02;14.50;;;1.80;90.10;;;;;;5058215;28;20040;-77
2023/01/27 10:02:34;;;;;;;13.30;7.32;;;1.80;90.10;;;;;;5043367;28;20036;-77
2023/01/27 10:05:14;;;;;;;12.25;7.28;;;1.90;90.10;;;;;;5056512;28;20032;-78
2023/01/27 10:07:47;;;;;;;11.07;6.00;;;1.90;90.00;;;;;;5070462;28;20434;-77
2023/01/27 10:10:25;;;;;;;11.48;5.80;;;1.90;90.00;;;;;;5054368;28;20612;-78
2023/01/27 10:13:07;;;;;;;10.68;6.32;;;1.90;90.00;;;;;;5078471;28;20084;-78
2023/01/27 10:15:51;;;;;;;17.08;9.18;;;2.00;90.00;;;;;;5073979;28;20633;-77
2023/01/27 10:18:33;;;;;;;12.48;7.50;;;2.00;90.00;;;;;;5074899;28;20032;-77
2023/01/27 10:21:18;;;;;;;13.93;7.18;;;2.00;90.00;;;;;;5045557;28;20028;-77
2023/01/27 10:24:17;;;;;;;10.75;5.93;;;2.10;90.10;;;;;;5074470;28;20040;-76
2023/01/27 10:26:54;;;;;;;9.88;5.60;;;2.10;90.00;;;;;;5056388;28;20046;-76
2023/01/27 10:29:24;;;;;;;8.98;5.20;;;2.10;90.00;;;;;;5061513;28;20163;-77
2023/01/27 10:31:55;;;;;;;11.13;4.83;;;2.10;90.00;;;;;;5076320;28;20039;-77
2023/01/27 10:34:34;;;;;;;8.45;4.65;;;2.10;90.00;;;;;;5076877;28;20063;-77
2023/01/27 10:37:12;;;;;;;8.23;4.80;;;2.10;89.90;;;;;;5074212;28;20267;-77
2023/01/27 10:40:21;;;;;;;9.68;4.30;;;2.20;89.90;;;;;;5077535;28;20132;-77
2023/01/27 10:43:09;;;;;;;8.65;4.70;;;2.20;89.90;;;;;;5033459;28;20043;-77
2023/01/27 10:45:46;;;;;;;7.20;4.15;;;2.20;89.90;;;;;;5093934;28;20759;-78
2023/01/27 10:48:34;;;;;;;13.55;5.10;;;2.20;90.10;;;;;;5059259;28;20142;-78
2023/01/27 10:51:04;;;;;;;8.57;4.90;;;2.30;89.90;;;;;;5067150;28;20106;-77
2023/01/27 10:53:29;;;;;;;10.35;4.70;;;2.30;89.80;;;;;;5058095;28;20043;-75
2023/01/27 10:56:03;;;;;;;11.27;4.50;;;2.30;89.80;;;;;;5081482;28;20036;-76
2023/01/27 10:58:48;;;;;;;13.38;4.93;;;2.30;89.70;;;;;;5075913;28;20034;-77
2023/01/27 11:01:15;;;;;;;7.93;4.57;;;2.30;89.60;;;;;;5073845;28;20701;-77
2023/01/27 11:03:53;;;;;;;10.98;4.32;;;2.30;89.60;;;;;;5073712;28;20118;-77
2023/01/27 11:06:22;;;;;;;8.27;4.10;;;2.40;89.70;;;;;;5060073;28;20048;-76
2023/01/27 11:08:54;;;;;;;8.32;4.30;;;2.40;89.70;;;;;;5047339;28;20039;-77
2023/01/27 11:14:29;;;;;;;9.57;4.22;;;2.50;89.60;;;;;;5068775;28;20042;-76
2023/01/27 11:17:13;;;;;;;6.88;4.50;;;2.50;89.60;;;;;;5064942;28;20043;-76
2023/01/27 11:20:15;;;;;;;7.65;4.15;;;2.60;89.60;;;;;;5080526;28;20039;-76
2023/01/27 11:23:04;;;;;;;5.93;3.45;;;2.70;89.50;;;;;;5078762;27;20042;-76
2023/01/27 11:25:52;;;;;;;6.60;3.55;;;2.70;89.40;;;;;;5081267;28;20039;-77
2023/01/27 11:28:29;;;;;;;5.38;3.42;;;2.80;89.30;;;;;;5093916;27;20034;-74
2023/01/27 11:31:28;;;;;;;5.30;3.33;;;2.80;89.30;;;;;;5065842;28;20024;-76
2023/01/27 11:33:57;;;;;;;6.25;3.25;;;2.90;89.20;;;;;;5060347;28;20035;-76
2023/01/27 11:36:24;;;;;;;8.73;3.53;;;2.90;89.20;;;;;;5063986;28;20518;-76
2023/01/27 11:38:50;;;;;;;6.45;3.55;;;3.00;89.30;;;;;;5079729;28;20063;-77
2023/01/27 11:41:15;;;;;;;4.53;2.92;;;3.00;89.30;;;;;;5060613;28;20082;-76
2023/01/27 11:43:41;;;;;;;4.88;2.90;;;3.20;89.50;;;;;;5064071;28;20040;-76
2023/01/27 11:46:09;;;;;;;7.30;3.15;;;3.40;89.40;;;;;;5046013;28;20071;-74
2023/01/27 11:48:42;;;;;;;4.78;2.38;;;3.50;89.20;;;;;;5043393;28;20079;-76
2023/01/27 11:51:34;;;;;;;6.00;3.92;;;3.50;88.90;;;;;;5044185;28;20044;-76
2023/01/27 11:54:17;;;;;;;11.75;5.00;;;3.60;88.60;;;;;;5059611;28;20028;-76
2023/01/27 11:56:44;;;;;;;31.70;10.95;;;3.60;88.70;;;;;;5058263;28;20047;-77
2023/01/27 11:59:23;;;;;;;7.30;5.32;;;3.60;88.50;;;;;;5075371;28;20089;-76
2023/01/27 12:01:57;;;;;;;5.38;4.13;;;3.60;88.30;;;;;;5063600;28;20067;-77
2023/01/27 12:04:50;;;;;;;4.78;3.28;;;3.50;88.10;;;;;;5036538;28;20709;-76
2023/01/27 12:07:24;;;;;;;2.42;1.83;;;3.60;87.90;;;;;;5032711;28;20044;-76
2023/01/27 12:09:49;;;;;;;6.00;4.63;;;3.50;87.90;;;;;;5059272;28;20032;-77
2023/01/27 12:12:24;;;;;;;3.72;2.70;;;3.50;87.90;;;;;;5084012;28;20040;-77
2023/01/27 12:14:53;;;;;;;2.97;1.90;;;3.50;87.90;;;;;;5036451;28;20035;-77
2023/01/27 12:17:40;;;;;;;3.05;2.08;;;3.50;87.80;;;;;;5060816;28;20823;-77
2023/01/27 12:20:20;;;;;;;2.53;1.83;;;3.50;87.70;;;;;;5044849;28;20046;-76
2023/01/27 12:22:49;;;;;;;2.20;1.93;;;3.50;87.60;;;;;;5082319;28;20525;-77
2023/01/27 12:25:20;;;;;;;5.63;2.53;;;3.50;87.70;;;;;;5062880;28;20035;-77
2023/01/27 12:27:55;;;;;;;8.13;4.70;;;3.50;87.70;;;;;;5043776;28;20536;-76
2023/01/27 12:30:25;;;;;;;21.88;12.20;;;3.50;87.70;;;;;;5042085;28;20127;-76
2023/01/27 12:32:51;;;;;;;5.82;4.40;;;3.50;87.70;;;;;;5057067;28;20025;-75
2023/01/27 12:35:23;;;;;;;8.75;5.22;;;3.50;87.70;;;;;;5046399;28;21752;-76
2023/01/27 12:37:49;;;;;;;9.57;6.40;;;3.50;87.50;;;;;;5032263;28;20491;-77
2023/01/27 12:40:23;;;;;;;17.52;10.60;;;3.50;87.60;;;;;;5049881;28;20076;-76
2023/01/27 12:43:09;;;;;;;4.35;3.30;;;3.50;87.50;;;;;;5044194;28;20032;-75
2023/01/27 12:45:37;;;;;;;9.63;5.03;;;3.50;87.50;;;;;;5058276;28;20067;-77
2023/01/27 12:48:08;;;;;;;26.50;10.55;;;3.60;87.50;;;;;;5046865;28;20121;-76
2023/01/27 12:50:34;;;;;;;37.55;14.30;;;3.50;87.20;;;;;;5069292;28;20147;-76
2023/01/27 12:53:04;;;;;;;66.30;33.22;;;3.50;87.20;;;;;;5062704;28;20105;-77
2023/01/27 12:55:35;;;;;;;25.85;11.85;;;3.50;87.20;;;;;;5080510;28;20052;-74
2023/01/27 12:58:00;;;;;;;24.83;13.47;;;3.50;87.10;;;;;;5059370;28;20027;-77
2023/01/27 13:00:26;;;;;;;8.18;5.30;;;3.50;87.10;;;;;;5058787;28;20063;-76
2023/01/27 13:02:54;;;;;;;16.70;8.82;;;3.60;87.20;;;;;;5062569;28;20039;-76
2023/01/27 13:05:19;;;;;;;11.05;8.88;;;3.60;87.20;;;;;;5074709;28;20024;-76
2023/01/27 13:07:46;;;;;;;26.00;13.18;;;3.60;87.20;;;;;;5046868;28;20707;-78
2023/01/27 13:10:19;;;;;;;6.93;4.32;;;3.60;87.10;;;;;;5059164;28;20161;-75
2023/01/27 13:12:56;;;;;;;4.85;2.35;;;3.60;87.10;;;;;;5041550;28;20509;-77
2023/01/27 13:15:23;;;;;;;16.80;9.20;;;3.60;87.00;;;;;;5046325;28;20666;-78
2023/01/27 13:17:52;;;;;;;5.05;3.85;;;3.60;87.00;;;;;;5059699;28;20035;-78
2023/01/27 13:20:39;;;;;;;11.55;5.57;;;3.60;87.00;;;;;;5043136;28;20082;-76
2023/01/27 13:23:21;;;;;;;14.15;6.35;;;3.70;86.70;;;;;;5044254;28;20070;-77
2023/01/27 13:26:24;;;;;;;18.00;7.70;;;3.60;86.80;;;;;;5056932;28;20502;-77
2023/01/27 13:29:10;;;;;;;11.93;5.68;;;3.70;86.70;;;;;;5023740;28;20058;-76
2023/01/27 13:31:52;;;;;;;4.13;2.42;;;3.70;86.90;;;;;;5054233;28;20078;-79
2023/01/27 13:34:22;;;;;;;22.88;10.43;;;3.70;86.80;;;;;;5060490;28;20108;-76
2023/01/27 13:37:09;;;;;;;825.35;473.60;;;3.80;87.70;;;;;;5057975;28;20031;-77